메인 페이지
METAR-TAF:

METAR-TAF

공항 :

Edremit, 터키

위도: 39-33-16N, 경도: 27-00-49E, 고도: 15m

현재 날씨관측

예보는 34분 전, 09:50시(UTC)에 발표되었습니다.
동북동12kt북동풍과 동남동풍을 오가는
온도 31°C
습도 46%
기압 1008 hPa
시정 10km 이상
고도 3500ft 상공 구름 조금

METAR: LTFD 040950Z 07012KT 050V110 9999 FEW035 31/18 Q1008

시각: 13:24 (10:24 UTC)

예보

예보는 2 시간 44분 전, 07:40시(UTC)에 발표되었습니다.
예보 대상 시간: 04일 09시부터 04일 18시까지 (UTC)
15kt
시정 10km 이상
고도 3500ft 상공 구름 조금

TAF: LTFD 040740Z 0409/0418 08015KT 9999 FEW035

4,000개 이상의 공항 관측 자료 및 예보 (METAR 및 TAF 보고).

지도상에서 검색 가능한 기상관측소가 노란 점과 빨간 점으로 표시되어 있습니다.

기상관측소 명을 보려면 표시 위로 마우스를 이동하세요.

날씨 관측과 예보를 보려면 클릭하세요.

지도 변경 : 확대하려면 엑스 표시가 있는 녹색 버튼, 축소하려면 빼기 표시가 있는 녹색 버튼, 다음 페이지의 지도를 보려면 녹색 화살표를 클릭하세요.


METAR-TAF: